sensor_id;sensor_type;location;lat;lon;timestamp;P1;durP1;ratioP1;P2;durP2;ratioP2
35981;SDS011;22058;0.000;0.000;2023-02-15T00:01:44;5.18;;;3.35;;
35981;SDS011;22058;0.000;0.000;2023-02-15T00:04:14;5.07;;;2.15;;
35981;SDS011;22058;0.000;0.000;2023-02-15T00:06:41;14.33;;;2.50;;
35981;SDS011;22058;0.000;0.000;2023-02-15T00:09:08;8.57;;;2.88;;
35981;SDS011;22058;0.000;0.000;2023-02-15T00:11:34;14.80;;;2.70;;
35981;SDS011;22058;0.000;0.000;2023-02-15T00:14:21;6.45;;;3.85;;
35981;SDS011;22058;0.000;0.000;2023-02-15T00:16:48;5.03;;;2.00;;
35981;SDS011;22058;0.000;0.000;2023-02-15T00:19:15;6.35;;;2.58;;
35981;SDS011;22058;0.000;0.000;2023-02-15T00:21:42;4.93;;;2.03;;
35981;SDS011;22058;0.000;0.000;2023-02-15T00:24:09;8.20;;;2.28;;
35981;SDS011;22058;0.000;0.000;2023-02-15T00:26:37;9.95;;;2.75;;
35981;SDS011;22058;0.000;0.000;2023-02-15T00:29:03;7.78;;;2.60;;
35981;SDS011;22058;0.000;0.000;2023-02-15T00:31:30;6.28;;;3.08;;
35981;SDS011;22058;0.000;0.000;2023-02-15T00:34:01;7.38;;;2.33;;
35981;SDS011;22058;0.000;0.000;2023-02-15T00:36:27;4.38;;;2.50;;
35981;SDS011;22058;0.000;0.000;2023-02-15T00:38:53;4.97;;;2.03;;
35981;SDS011;22058;0.000;0.000;2023-02-15T00:41:19;6.25;;;2.47;;
35981;SDS011;22058;0.000;0.000;2023-02-15T00:43:46;8.05;;;2.20;;
35981;SDS011;22058;0.000;0.000;2023-02-15T00:46:12;4.57;;;3.03;;
35981;SDS011;22058;0.000;0.000;2023-02-15T00:48:38;5.03;;;2.75;;
35981;SDS011;22058;0.000;0.000;2023-02-15T00:51:04;6.93;;;4.10;;
35981;SDS011;22058;0.000;0.000;2023-02-15T00:53:30;4.43;;;2.42;;
35981;SDS011;22058;0.000;0.000;2023-02-15T00:55:57;7.72;;;2.17;;
35981;SDS011;22058;0.000;0.000;2023-02-15T00:58:23;8.48;;;2.50;;
35981;SDS011;22058;0.000;0.000;2023-02-15T01:00:50;6.32;;;2.78;;
35981;SDS011;22058;0.000;0.000;2023-02-15T01:03:17;7.90;;;2.70;;
35981;SDS011;22058;0.000;0.000;2023-02-15T01:05:43;4.95;;;2.35;;
35981;SDS011;22058;0.000;0.000;2023-02-15T01:08:09;8.73;;;2.20;;
35981;SDS011;22058;0.000;0.000;2023-02-15T01:10:35;8.02;;;3.58;;
35981;SDS011;22058;0.000;0.000;2023-02-15T01:13:01;7.75;;;3.00;;
35981;SDS011;22058;0.000;0.000;2023-02-15T01:15:28;3.22;;;1.90;;
35981;SDS011;22058;0.000;0.000;2023-02-15T01:17:54;8.38;;;3.80;;
35981;SDS011;22058;0.000;0.000;2023-02-15T01:20:21;6.32;;;3.15;;
35981;SDS011;22058;0.000;0.000;2023-02-15T01:22:48;8.80;;;3.08;;
35981;SDS011;22058;0.000;0.000;2023-02-15T01:25:18;6.63;;;2.92;;
35981;SDS011;22058;0.000;0.000;2023-02-15T01:27:44;2.50;;;2.13;;
35981;SDS011;22058;0.000;0.000;2023-02-15T01:30:11;3.97;;;2.35;;
35981;SDS011;22058;0.000;0.000;2023-02-15T01:32:37;8.68;;;2.05;;
35981;SDS011;22058;0.000;0.000;2023-02-15T01:35:03;5.97;;;2.40;;
35981;SDS011;22058;0.000;0.000;2023-02-15T01:37:30;4.35;;;2.00;;
35981;SDS011;22058;0.000;0.000;2023-02-15T01:39:56;5.35;;;1.63;;
35981;SDS011;22058;0.000;0.000;2023-02-15T01:42:25;4.65;;;2.08;;
35981;SDS011;22058;0.000;0.000;2023-02-15T01:44:53;5.35;;;2.85;;
35981;SDS011;22058;0.000;0.000;2023-02-15T01:49:48;6.05;;;2.47;;
35981;SDS011;22058;0.000;0.000;2023-02-15T01:52:15;6.72;;;2.50;;
35981;SDS011;22058;0.000;0.000;2023-02-15T01:54:43;6.57;;;2.50;;
35981;SDS011;22058;0.000;0.000;2023-02-15T01:57:12;4.85;;;2.10;;
35981;SDS011;22058;0.000;0.000;2023-02-15T01:59:39;6.45;;;2.75;;
35981;SDS011;22058;0.000;0.000;2023-02-15T02:02:09;6.55;;;2.30;;
35981;SDS011;22058;0.000;0.000;2023-02-15T02:04:40;5.97;;;1.80;;
35981;SDS011;22058;0.000;0.000;2023-02-15T02:07:07;5.80;;;2.97;;
35981;SDS011;22058;0.000;0.000;2023-02-15T02:09:34;4.85;;;2.00;;
35981;SDS011;22058;0.000;0.000;2023-02-15T02:12:01;11.27;;;3.10;;
35981;SDS011;22058;0.000;0.000;2023-02-15T02:14:28;4.15;;;1.63;;
35981;SDS011;22058;0.000;0.000;2023-02-15T02:16:58;7.90;;;3.10;;
35981;SDS011;22058;0.000;0.000;2023-02-15T02:37:31;3.83;;;2.10;;
35981;SDS011;22058;0.000;0.000;2023-02-15T02:40:16;6.95;;;3.72;;
35981;SDS011;22058;0.000;0.000;2023-02-15T02:43:05;3.42;;;1.95;;
35981;SDS011;22058;0.000;0.000;2023-02-15T02:45:41;6.97;;;2.22;;
35981;SDS011;22058;0.000;0.000;2023-02-15T02:48:16;4.70;;;2.40;;
35981;SDS011;22058;0.000;0.000;2023-02-15T02:50:44;4.82;;;1.88;;
35981;SDS011;22058;0.000;0.000;2023-02-15T02:53:10;4.35;;;1.90;;
35981;SDS011;22058;0.000;0.000;2023-02-15T02:58:08;6.30;;;2.33;;
35981;SDS011;22058;0.000;0.000;2023-02-15T03:00:40;5.60;;;2.35;;
35981;SDS011;22058;0.000;0.000;2023-02-15T03:03:11;4.40;;;2.10;;
35981;SDS011;22058;0.000;0.000;2023-02-15T03:05:41;5.55;;;2.35;;
35981;SDS011;22058;0.000;0.000;2023-02-15T03:08:07;3.47;;;1.75;;
35981;SDS011;22058;0.000;0.000;2023-02-15T03:10:35;4.03;;;2.10;;
35981;SDS011;22058;0.000;0.000;2023-02-15T03:13:02;3.92;;;2.35;;
35981;SDS011;22058;0.000;0.000;2023-02-15T03:15:33;3.53;;;2.20;;
35981;SDS011;22058;0.000;0.000;2023-02-15T03:18:20;4.00;;;2.22;;
35981;SDS011;22058;0.000;0.000;2023-02-15T03:20:48;3.80;;;1.83;;
35981;SDS011;22058;0.000;0.000;2023-02-15T03:23:20;4.75;;;2.38;;
35981;SDS011;22058;0.000;0.000;2023-02-15T03:26:00;4.13;;;2.40;;
35981;SDS011;22058;0.000;0.000;2023-02-15T03:28:37;6.53;;;2.00;;
35981;SDS011;22058;0.000;0.000;2023-02-15T03:31:05;3.85;;;2.10;;
35981;SDS011;22058;0.000;0.000;2023-02-15T03:33:32;3.75;;;1.90;;
35981;SDS011;22058;0.000;0.000;2023-02-15T03:36:04;3.67;;;2.08;;
35981;SDS011;22058;0.000;0.000;2023-02-15T03:38:54;4.22;;;2.10;;
35981;SDS011;22058;0.000;0.000;2023-02-15T03:41:24;2.05;;;1.65;;
35981;SDS011;22058;0.000;0.000;2023-02-15T03:43:53;5.57;;;2.13;;
35981;SDS011;22058;0.000;0.000;2023-02-15T03:46:32;3.13;;;1.90;;
35981;SDS011;22058;0.000;0.000;2023-02-15T03:49:09;3.47;;;2.20;;
35981;SDS011;22058;0.000;0.000;2023-02-15T03:51:37;3.33;;;1.85;;
35981;SDS011;22058;0.000;0.000;2023-02-15T03:54:47;3.50;;;2.47;;
35981;SDS011;22058;0.000;0.000;2023-02-15T03:57:10;3.20;;;1.73;;
35981;SDS011;22058;0.000;0.000;2023-02-15T03:59:56;2.50;;;2.30;;
35981;SDS011;22058;0.000;0.000;2023-02-15T04:02:44;2.70;;;2.20;;
35981;SDS011;22058;0.000;0.000;2023-02-15T04:05:12;4.63;;;1.80;;
35981;SDS011;22058;0.000;0.000;2023-02-15T04:07:39;3.40;;;2.08;;
35981;SDS011;22058;0.000;0.000;2023-02-15T04:10:05;5.82;;;2.17;;
35981;SDS011;22058;0.000;0.000;2023-02-15T04:12:50;3.35;;;2.08;;
35981;SDS011;22058;0.000;0.000;2023-02-15T04:15:16;4.85;;;2.28;;
35981;SDS011;22058;0.000;0.000;2023-02-15T04:18:04;3.15;;;2.42;;
35981;SDS011;22058;0.000;0.000;2023-02-15T04:20:30;3.38;;;2.33;;
35981;SDS011;22058;0.000;0.000;2023-02-15T04:23:15;3.80;;;1.90;;
35981;SDS011;22058;0.000;0.000;2023-02-15T04:26:02;2.65;;;1.70;;
35981;SDS011;22058;0.000;0.000;2023-02-15T04:28:29;5.72;;;2.20;;
35981;SDS011;22058;0.000;0.000;2023-02-15T04:30:56;10.23;;;3.05;;
35981;SDS011;22058;0.000;0.000;2023-02-15T04:33:23;5.32;;;2.40;;
35981;SDS011;22058;0.000;0.000;2023-02-15T04:35:49;2.63;;;2.28;;
35981;SDS011;22058;0.000;0.000;2023-02-15T04:38:15;3.28;;;2.40;;
35981;SDS011;22058;0.000;0.000;2023-02-15T04:40:41;1.60;;;1.50;;
35981;SDS011;22058;0.000;0.000;2023-02-15T04:43:07;14.73;;;2.70;;
35981;SDS011;22058;0.000;0.000;2023-02-15T04:45:33;7.03;;;2.28;;
35981;SDS011;22058;0.000;0.000;2023-02-15T04:47:59;9.30;;;2.65;;
35981;SDS011;22058;0.000;0.000;2023-02-15T04:50:25;12.63;;;4.00;;
35981;SDS011;22058;0.000;0.000;2023-02-15T04:52:52;11.18;;;3.20;;
35981;SDS011;22058;0.000;0.000;2023-02-15T04:55:18;6.10;;;2.78;;
35981;SDS011;22058;0.000;0.000;2023-02-15T04:57:44;4.53;;;2.88;;
35981;SDS011;22058;0.000;0.000;2023-02-15T05:00:11;11.18;;;2.22;;
35981;SDS011;22058;0.000;0.000;2023-02-15T05:02:37;6.53;;;2.50;;
35981;SDS011;22058;0.000;0.000;2023-02-15T05:05:04;7.88;;;2.53;;
35981;SDS011;22058;0.000;0.000;2023-02-15T05:07:31;1.98;;;1.83;;
35981;SDS011;22058;0.000;0.000;2023-02-15T05:10:01;9.02;;;2.83;;
35981;SDS011;22058;0.000;0.000;2023-02-15T05:12:28;6.78;;;2.40;;
35981;SDS011;22058;0.000;0.000;2023-02-15T05:14:54;3.10;;;2.05;;
35981;SDS011;22058;0.000;0.000;2023-02-15T05:17:20;4.45;;;2.08;;
35981;SDS011;22058;0.000;0.000;2023-02-15T05:19:46;2.58;;;2.15;;
35981;SDS011;22058;0.000;0.000;2023-02-15T05:22:12;7.25;;;2.70;;
35981;SDS011;22058;0.000;0.000;2023-02-15T05:24:39;7.38;;;2.35;;
35981;SDS011;22058;0.000;0.000;2023-02-15T05:27:23;7.50;;;2.50;;
35981;SDS011;22058;0.000;0.000;2023-02-15T05:30:08;3.28;;;2.08;;
35981;SDS011;22058;0.000;0.000;2023-02-15T05:32:37;7.93;;;2.40;;
35981;SDS011;22058;0.000;0.000;2023-02-15T05:35:04;6.57;;;3.60;;
35981;SDS011;22058;0.000;0.000;2023-02-15T05:37:30;7.38;;;2.58;;
35981;SDS011;22058;0.000;0.000;2023-02-15T05:39:56;6.18;;;2.47;;
35981;SDS011;22058;0.000;0.000;2023-02-15T05:42:22;8.32;;;3.25;;
35981;SDS011;22058;0.000;0.000;2023-02-15T05:44:49;3.83;;;2.45;;
35981;SDS011;22058;0.000;0.000;2023-02-15T05:47:15;6.22;;;2.67;;
35981;SDS011;22058;0.000;0.000;2023-02-15T05:49:41;4.43;;;3.17;;
35981;SDS011;22058;0.000;0.000;2023-02-15T05:52:07;7.90;;;2.28;;
35981;SDS011;22058;0.000;0.000;2023-02-15T05:54:33;4.63;;;2.08;;
35981;SDS011;22058;0.000;0.000;2023-02-15T05:56:59;14.57;;;3.72;;
35981;SDS011;22058;0.000;0.000;2023-02-15T05:59:25;6.32;;;2.30;;
35981;SDS011;22058;0.000;0.000;2023-02-15T06:01:51;4.43;;;3.22;;
35981;SDS011;22058;0.000;0.000;2023-02-15T06:04:18;4.13;;;2.20;;
35981;SDS011;22058;0.000;0.000;2023-02-15T06:06:44;7.80;;;2.88;;
35981;SDS011;22058;0.000;0.000;2023-02-15T06:09:11;14.95;;;2.70;;
35981;SDS011;22058;0.000;0.000;2023-02-15T06:11:38;6.43;;;2.97;;
35981;SDS011;22058;0.000;0.000;2023-02-15T06:14:04;11.27;;;3.15;;
35981;SDS011;22058;0.000;0.000;2023-02-15T06:16:30;6.10;;;3.55;;
35981;SDS011;22058;0.000;0.000;2023-02-15T06:18:57;5.35;;;2.72;;
35981;SDS011;22058;0.000;0.000;2023-02-15T06:21:24;3.35;;;2.28;;
35981;SDS011;22058;0.000;0.000;2023-02-15T06:23:50;7.25;;;2.85;;
35981;SDS011;22058;0.000;0.000;2023-02-15T06:26:16;10.65;;;3.10;;
35981;SDS011;22058;0.000;0.000;2023-02-15T06:28:42;7.88;;;2.55;;
35981;SDS011;22058;0.000;0.000;2023-02-15T06:31:08;10.35;;;2.60;;
35981;SDS011;22058;0.000;0.000;2023-02-15T06:33:35;13.40;;;3.45;;
35981;SDS011;22058;0.000;0.000;2023-02-15T06:36:01;5.72;;;2.92;;
35981;SDS011;22058;0.000;0.000;2023-02-15T06:38:28;7.35;;;2.47;;
35981;SDS011;22058;0.000;0.000;2023-02-15T06:40:54;3.83;;;2.42;;
35981;SDS011;22058;0.000;0.000;2023-02-15T06:43:21;6.57;;;2.30;;
35981;SDS011;22058;0.000;0.000;2023-02-15T06:45:47;12.13;;;2.53;;
35981;SDS011;22058;0.000;0.000;2023-02-15T06:48:13;5.45;;;2.20;;
35981;SDS011;22058;0.000;0.000;2023-02-15T06:50:39;4.05;;;2.92;;
35981;SDS011;22058;0.000;0.000;2023-02-15T06:53:05;6.32;;;2.33;;
35981;SDS011;22058;0.000;0.000;2023-02-15T06:55:32;6.57;;;3.13;;
35981;SDS011;22058;0.000;0.000;2023-02-15T06:57:58;3.72;;;2.33;;
35981;SDS011;22058;0.000;0.000;2023-02-15T07:00:24;8.52;;;2.63;;
35981;SDS011;22058;0.000;0.000;2023-02-15T07:02:54;6.28;;;2.65;;
35981;SDS011;22058;0.000;0.000;2023-02-15T07:05:23;4.75;;;2.47;;
35981;SDS011;22058;0.000;0.000;2023-02-15T07:07:50;12.98;;;2.63;;
35981;SDS011;22058;0.000;0.000;2023-02-15T07:10:16;7.43;;;2.95;;
35981;SDS011;22058;0.000;0.000;2023-02-15T07:12:42;8.88;;;3.20;;
35981;SDS011;22058;0.000;0.000;2023-02-15T07:15:13;10.30;;;3.72;;
35981;SDS011;22058;0.000;0.000;2023-02-15T07:17:40;7.50;;;2.67;;
35981;SDS011;22058;0.000;0.000;2023-02-15T07:20:07;8.13;;;2.85;;
35981;SDS011;22058;0.000;0.000;2023-02-15T07:22:34;8.75;;;2.92;;
35981;SDS011;22058;0.000;0.000;2023-02-15T07:25:02;5.13;;;2.70;;
35981;SDS011;22058;0.000;0.000;2023-02-15T07:27:28;10.38;;;2.92;;
35981;SDS011;22058;0.000;0.000;2023-02-15T07:29:54;12.70;;;2.95;;
35981;SDS011;22058;0.000;0.000;2023-02-15T07:32:20;13.50;;;3.88;;
35981;SDS011;22058;0.000;0.000;2023-02-15T07:34:46;11.10;;;2.72;;
35981;SDS011;22058;0.000;0.000;2023-02-15T07:37:13;6.43;;;2.90;;
35981;SDS011;22058;0.000;0.000;2023-02-15T07:39:39;4.75;;;2.95;;
35981;SDS011;22058;0.000;0.000;2023-02-15T07:42:05;6.20;;;2.78;;
35981;SDS011;22058;0.000;0.000;2023-02-15T07:44:31;8.43;;;4.43;;
35981;SDS011;22058;0.000;0.000;2023-02-15T07:46:57;16.25;;;2.40;;
35981;SDS011;22058;0.000;0.000;2023-02-15T07:49:23;4.65;;;3.03;;
35981;SDS011;22058;0.000;0.000;2023-02-15T07:51:49;8.32;;;2.72;;
35981;SDS011;22058;0.000;0.000;2023-02-15T07:54:15;3.65;;;2.58;;
35981;SDS011;22058;0.000;0.000;2023-02-15T07:56:42;9.77;;;3.60;;
35981;SDS011;22058;0.000;0.000;2023-02-15T07:59:08;18.58;;;3.22;;
35981;SDS011;22058;0.000;0.000;2023-02-15T08:01:35;7.53;;;3.30;;
35981;SDS011;22058;0.000;0.000;2023-02-15T08:04:02;12.50;;;3.63;;
35981;SDS011;22058;0.000;0.000;2023-02-15T08:06:31;7.47;;;2.47;;
35981;SDS011;22058;0.000;0.000;2023-02-15T08:08:57;7.75;;;2.72;;
35981;SDS011;22058;0.000;0.000;2023-02-15T08:11:27;11.50;;;2.42;;
35981;SDS011;22058;0.000;0.000;2023-02-15T08:16:21;8.18;;;3.50;;
35981;SDS011;22058;0.000;0.000;2023-02-15T08:18:48;10.18;;;3.28;;
35981;SDS011;22058;0.000;0.000;2023-02-15T08:21:14;10.60;;;3.85;;
35981;SDS011;22058;0.000;0.000;2023-02-15T08:23:40;7.85;;;3.05;;
35981;SDS011;22058;0.000;0.000;2023-02-15T08:26:06;17.08;;;3.58;;
35981;SDS011;22058;0.000;0.000;2023-02-15T08:28:32;7.72;;;3.40;;
35981;SDS011;22058;0.000;0.000;2023-02-15T08:31:08;12.55;;;3.58;;
35981;SDS011;22058;0.000;0.000;2023-02-15T08:33:35;9.52;;;2.85;;
35981;SDS011;22058;0.000;0.000;2023-02-15T08:36:05;13.60;;;3.35;;
35981;SDS011;22058;0.000;0.000;2023-02-15T08:38:31;11.20;;;3.15;;
35981;SDS011;22058;0.000;0.000;2023-02-15T08:40:58;7.22;;;3.03;;
35981;SDS011;22058;0.000;0.000;2023-02-15T08:43:24;10.82;;;3.25;;
35981;SDS011;22058;0.000;0.000;2023-02-15T08:45:50;9.73;;;2.58;;
35981;SDS011;22058;0.000;0.000;2023-02-15T08:48:16;8.48;;;2.33;;
35981;SDS011;22058;0.000;0.000;2023-02-15T08:50:43;14.38;;;2.72;;
35981;SDS011;22058;0.000;0.000;2023-02-15T08:53:09;14.35;;;4.30;;
35981;SDS011;22058;0.000;0.000;2023-02-15T08:55:35;4.60;;;2.50;;
35981;SDS011;22058;0.000;0.000;2023-02-15T08:58:01;19.17;;;3.08;;
35981;SDS011;22058;0.000;0.000;2023-02-15T09:00:27;7.18;;;2.92;;
35981;SDS011;22058;0.000;0.000;2023-02-15T09:02:54;6.65;;;3.30;;
35981;SDS011;22058;0.000;0.000;2023-02-15T09:05:20;9.18;;;2.70;;
35981;SDS011;22058;0.000;0.000;2023-02-15T09:07:46;8.18;;;2.67;;
35981;SDS011;22058;0.000;0.000;2023-02-15T09:10:12;12.02;;;3.47;;
35981;SDS011;22058;0.000;0.000;2023-02-15T09:12:38;10.85;;;3.80;;
35981;SDS011;22058;0.000;0.000;2023-02-15T09:15:04;11.80;;;3.88;;
35981;SDS011;22058;0.000;0.000;2023-02-15T09:17:31;10.48;;;4.00;;
35981;SDS011;22058;0.000;0.000;2023-02-15T09:19:57;21.80;;;3.33;;
35981;SDS011;22058;0.000;0.000;2023-02-15T09:22:23;17.42;;;7.03;;
35981;SDS011;22058;0.000;0.000;2023-02-15T09:24:49;10.45;;;3.63;;
35981;SDS011;22058;0.000;0.000;2023-02-15T09:27:15;10.57;;;3.95;;
35981;SDS011;22058;0.000;0.000;2023-02-15T09:29:41;9.68;;;3.47;;
35981;SDS011;22058;0.000;0.000;2023-02-15T09:32:08;8.95;;;3.47;;
35981;SDS011;22058;0.000;0.000;2023-02-15T09:34:34;7.78;;;2.95;;
35981;SDS011;22058;0.000;0.000;2023-02-15T09:37:00;11.43;;;3.88;;
35981;SDS011;22058;0.000;0.000;2023-02-15T09:39:27;9.10;;;3.47;;
35981;SDS011;22058;0.000;0.000;2023-02-15T09:44:42;9.77;;;3.05;;
35981;SDS011;22058;0.000;0.000;2023-02-15T10:00:37;7.75;;;3.97;;
35981;SDS011;22058;0.000;0.000;2023-02-15T10:03:23;8.93;;;2.72;;
35981;SDS011;22058;0.000;0.000;2023-02-15T10:11:38;8.65;;;3.40;;
35981;SDS011;22058;0.000;0.000;2023-02-15T10:19:54;8.63;;;3.95;;
35981;SDS011;22058;0.000;0.000;2023-02-15T10:24:42;8.85;;;4.07;;
35981;SDS011;22058;0.000;0.000;2023-02-15T10:27:12;9.75;;;3.67;;
35981;SDS011;22058;0.000;0.000;2023-02-15T10:29:39;11.73;;;3.92;;
35981;SDS011;22058;0.000;0.000;2023-02-15T10:32:16;4.90;;;3.30;;
35981;SDS011;22058;0.000;0.000;2023-02-15T10:40:25;19.98;;;3.30;;
35981;SDS011;22058;0.000;0.000;2023-02-15T10:45:32;14.52;;;4.45;;
35981;SDS011;22058;0.000;0.000;2023-02-15T10:48:21;12.02;;;3.22;;
35981;SDS011;22058;0.000;0.000;2023-02-15T10:50:59;5.45;;;3.28;;
35981;SDS011;22058;0.000;0.000;2023-02-15T10:53:30;9.02;;;3.08;;
35981;SDS011;22058;0.000;0.000;2023-02-15T10:58:44;10.38;;;4.80;;
35981;SDS011;22058;0.000;0.000;2023-02-15T11:01:20;13.27;;;5.03;;
35981;SDS011;22058;0.000;0.000;2023-02-15T11:06:17;15.82;;;4.30;;
35981;SDS011;22058;0.000;0.000;2023-02-15T11:08:51;6.88;;;4.45;;
35981;SDS011;22058;0.000;0.000;2023-02-15T11:11:41;8.95;;;4.57;;
35981;SDS011;22058;0.000;0.000;2023-02-15T11:14:10;19.63;;;6.25;;
35981;SDS011;22058;0.000;0.000;2023-02-15T11:16:41;12.23;;;4.53;;
35981;SDS011;22058;0.000;0.000;2023-02-15T11:22:01;18.15;;;5.28;;
35981;SDS011;22058;0.000;0.000;2023-02-15T11:24:26;16.35;;;5.63;;
35981;SDS011;22058;0.000;0.000;2023-02-15T11:27:10;37.40;;;7.13;;
35981;SDS011;22058;0.000;0.000;2023-02-15T11:29:47;24.15;;;6.10;;
35981;SDS011;22058;0.000;0.000;2023-02-15T11:32:20;20.67;;;5.15;;
35981;SDS011;22058;0.000;0.000;2023-02-15T11:34:51;19.35;;;5.30;;
35981;SDS011;22058;0.000;0.000;2023-02-15T11:37:20;17.35;;;4.97;;
35981;SDS011;22058;0.000;0.000;2023-02-15T11:39:50;22.20;;;5.60;;
35981;SDS011;22058;0.000;0.000;2023-02-15T11:42:20;37.72;;;7.22;;
35981;SDS011;22058;0.000;0.000;2023-02-15T11:44:56;11.65;;;4.18;;
35981;SDS011;22058;0.000;0.000;2023-02-15T11:47:24;10.68;;;3.85;;
35981;SDS011;22058;0.000;0.000;2023-02-15T11:49:51;17.40;;;5.43;;
35981;SDS011;22058;0.000;0.000;2023-02-15T11:52:17;15.80;;;4.50;;
35981;SDS011;22058;0.000;0.000;2023-02-15T11:54:45;25.75;;;4.75;;
35981;SDS011;22058;0.000;0.000;2023-02-15T11:59:38;8.07;;;4.43;;
35981;SDS011;22058;0.000;0.000;2023-02-15T12:02:14;12.88;;;4.50;;
35981;SDS011;22058;0.000;0.000;2023-02-15T12:04:41;7.15;;;4.00;;
35981;SDS011;22058;0.000;0.000;2023-02-15T12:12:22;12.10;;;5.03;;
35981;SDS011;22058;0.000;0.000;2023-02-15T12:14:50;6.32;;;4.22;;
35981;SDS011;22058;0.000;0.000;2023-02-15T12:17:16;6.30;;;3.53;;
35981;SDS011;22058;0.000;0.000;2023-02-15T12:19:43;13.50;;;4.30;;
35981;SDS011;22058;0.000;0.000;2023-02-15T12:22:27;7.25;;;4.07;;
35981;SDS011;22058;0.000;0.000;2023-02-15T12:24:54;12.13;;;4.22;;
35981;SDS011;22058;0.000;0.000;2023-02-15T12:27:25;8.13;;;4.15;;
35981;SDS011;22058;0.000;0.000;2023-02-15T12:29:53;8.23;;;3.80;;
35981;SDS011;22058;0.000;0.000;2023-02-15T12:32:22;9.43;;;4.65;;
35981;SDS011;22058;0.000;0.000;2023-02-15T12:34:50;12.57;;;4.10;;
35981;SDS011;22058;0.000;0.000;2023-02-15T12:37:19;8.85;;;3.35;;
35981;SDS011;22058;0.000;0.000;2023-02-15T12:39:50;10.20;;;3.33;;
35981;SDS011;22058;0.000;0.000;2023-02-15T12:42:17;9.90;;;3.63;;
35981;SDS011;22058;0.000;0.000;2023-02-15T12:47:26;13.85;;;3.63;;
35981;SDS011;22058;0.000;0.000;2023-02-15T12:52:45;8.88;;;3.78;;
35981;SDS011;22058;0.000;0.000;2023-02-15T12:57:44;15.45;;;4.07;;
35981;SDS011;22058;0.000;0.000;2023-02-15T13:02:46;12.27;;;3.55;;
35981;SDS011;22058;0.000;0.000;2023-02-15T13:07:49;5.07;;;3.95;;
35981;SDS011;22058;0.000;0.000;2023-02-15T13:10:29;17.40;;;3.60;;
35981;SDS011;22058;0.000;0.000;2023-02-15T13:12:56;11.18;;;3.28;;
35981;SDS011;22058;0.000;0.000;2023-02-15T13:15:23;11.98;;;3.38;;
35981;SDS011;22058;0.000;0.000;2023-02-15T13:17:50;22.27;;;4.88;;
35981;SDS011;22058;0.000;0.000;2023-02-15T13:20:20;13.73;;;3.83;;
35981;SDS011;22058;0.000;0.000;2023-02-15T13:22:49;8.23;;;3.47;;
35981;SDS011;22058;0.000;0.000;2023-02-15T13:25:23;15.88;;;4.40;;
35981;SDS011;22058;0.000;0.000;2023-02-15T13:27:54;13.48;;;5.43;;
35981;SDS011;22058;0.000;0.000;2023-02-15T13:30:25;16.38;;;4.05;;
35981;SDS011;22058;0.000;0.000;2023-02-15T13:32:54;16.70;;;4.65;;
35981;SDS011;22058;0.000;0.000;2023-02-15T13:35:21;10.05;;;3.00;;
35981;SDS011;22058;0.000;0.000;2023-02-15T13:38:02;5.32;;;3.45;;
35981;SDS011;22058;0.000;0.000;2023-02-15T13:43:25;9.75;;;3.20;;
35981;SDS011;22058;0.000;0.000;2023-02-15T14:03:44;3.88;;;2.80;;
35981;SDS011;22058;0.000;0.000;2023-02-15T14:06:34;7.70;;;3.13;;
35981;SDS011;22058;0.000;0.000;2023-02-15T14:11:37;11.40;;;2.78;;
35981;SDS011;22058;0.000;0.000;2023-02-15T14:17:08;10.40;;;2.90;;
35981;SDS011;22058;0.000;0.000;2023-02-15T14:19:39;18.25;;;4.15;;
35981;SDS011;22058;0.000;0.000;2023-02-15T14:24:59;13.43;;;4.10;;
35981;SDS011;22058;0.000;0.000;2023-02-15T14:30:02;21.80;;;5.45;;
35981;SDS011;22058;0.000;0.000;2023-02-15T14:32:30;19.75;;;4.15;;
35981;SDS011;22058;0.000;0.000;2023-02-15T14:34:59;33.55;;;6.10;;
35981;SDS011;22058;0.000;0.000;2023-02-15T14:43:30;16.40;;;3.55;;
35981;SDS011;22058;0.000;0.000;2023-02-15T14:46:00;18.13;;;3.58;;
35981;SDS011;22058;0.000;0.000;2023-02-15T14:48:33;8.00;;;3.23;;
35981;SDS011;22058;0.000;0.000;2023-02-15T14:51:04;19.45;;;3.97;;
35981;SDS011;22058;0.000;0.000;2023-02-15T14:53:34;16.27;;;3.70;;
35981;SDS011;22058;0.000;0.000;2023-02-15T14:58:34;11.93;;;3.95;;
35981;SDS011;22058;0.000;0.000;2023-02-15T15:01:07;6.55;;;3.47;;
35981;SDS011;22058;0.000;0.000;2023-02-15T15:03:34;9.80;;;4.75;;
35981;SDS011;22058;0.000;0.000;2023-02-15T15:06:02;9.23;;;3.38;;
35981;SDS011;22058;0.000;0.000;2023-02-15T15:08:31;8.15;;;4.35;;
35981;SDS011;22058;0.000;0.000;2023-02-15T15:11:36;6.73;;;3.80;;
35981;SDS011;22058;0.000;0.000;2023-02-15T15:13:53;6.55;;;3.08;;
35981;SDS011;22058;0.000;0.000;2023-02-15T15:16:52;9.13;;;3.58;;
35981;SDS011;22058;0.000;0.000;2023-02-15T15:19:12;10.05;;;3.08;;
35981;SDS011;22058;0.000;0.000;2023-02-15T15:22:02;6.72;;;3.72;;
35981;SDS011;22058;0.000;0.000;2023-02-15T15:29:48;5.65;;;3.17;;
35981;SDS011;22058;0.000;0.000;2023-02-15T15:32:14;7.22;;;3.05;;
35981;SDS011;22058;0.000;0.000;2023-02-15T15:45:37;12.02;;;3.50;;
35981;SDS011;22058;0.000;0.000;2023-02-15T15:48:11;8.55;;;3.72;;
35981;SDS011;22058;0.000;0.000;2023-02-15T15:50:41;12.82;;;3.30;;
35981;SDS011;22058;0.000;0.000;2023-02-15T15:53:10;14.90;;;3.30;;
35981;SDS011;22058;0.000;0.000;2023-02-15T15:55:47;12.13;;;5.32;;
35981;SDS011;22058;0.000;0.000;2023-02-15T15:58:15;10.50;;;3.40;;
35981;SDS011;22058;0.000;0.000;2023-02-15T16:03:15;8.63;;;3.78;;
35981;SDS011;22058;0.000;0.000;2023-02-15T16:05:42;11.50;;;4.10;;
35981;SDS011;22058;0.000;0.000;2023-02-15T16:08:08;13.43;;;3.90;;
35981;SDS011;22058;0.000;0.000;2023-02-15T16:10:34;8.40;;;3.10;;
35981;SDS011;22058;0.000;0.000;2023-02-15T16:13:02;7.60;;;3.88;;
35981;SDS011;22058;0.000;0.000;2023-02-15T16:17:59;12.95;;;3.22;;
35981;SDS011;22058;0.000;0.000;2023-02-15T16:20:30;9.45;;;3.10;;
35981;SDS011;22058;0.000;0.000;2023-02-15T16:28:20;15.73;;;4.68;;
35981;SDS011;22058;0.000;0.000;2023-02-15T16:30:54;11.05;;;3.00;;
35981;SDS011;22058;0.000;0.000;2023-02-15T16:33:21;14.80;;;3.65;;
35981;SDS011;22058;0.000;0.000;2023-02-15T16:35:54;6.57;;;3.30;;
35981;SDS011;22058;0.000;0.000;2023-02-15T16:38:41;11.80;;;3.17;;
35981;SDS011;22058;0.000;0.000;2023-02-15T16:41:06;14.45;;;3.92;;
35981;SDS011;22058;0.000;0.000;2023-02-15T16:43:33;14.23;;;3.22;;
35981;SDS011;22058;0.000;0.000;2023-02-15T16:46:14;15.30;;;3.65;;
35981;SDS011;22058;0.000;0.000;2023-02-15T16:48:43;17.60;;;4.93;;
35981;SDS011;22058;0.000;0.000;2023-02-15T16:51:14;9.30;;;3.80;;
35981;SDS011;22058;0.000;0.000;2023-02-15T16:53:45;12.10;;;3.40;;
35981;SDS011;22058;0.000;0.000;2023-02-15T16:56:12;9.88;;;4.57;;
35981;SDS011;22058;0.000;0.000;2023-02-15T17:01:05;9.15;;;2.72;;
35981;SDS011;22058;0.000;0.000;2023-02-15T17:03:32;9.85;;;3.30;;
35981;SDS011;22058;0.000;0.000;2023-02-15T17:05:59;6.90;;;2.88;;
35981;SDS011;22058;0.000;0.000;2023-02-15T17:13:24;4.40;;;2.58;;
35981;SDS011;22058;0.000;0.000;2023-02-15T17:18:21;10.82;;;3.67;;
35981;SDS011;22058;0.000;0.000;2023-02-15T17:20:49;7.63;;;3.17;;
35981;SDS011;22058;0.000;0.000;2023-02-15T17:23:40;9.45;;;4.13;;
35981;SDS011;22058;0.000;0.000;2023-02-15T17:26:10;10.02;;;3.22;;
35981;SDS011;22058;0.000;0.000;2023-02-15T17:28:37;9.45;;;3.90;;
35981;SDS011;22058;0.000;0.000;2023-02-15T17:31:06;10.98;;;3.30;;
35981;SDS011;22058;0.000;0.000;2023-02-15T17:36:12;13.57;;;4.85;;
35981;SDS011;22058;0.000;0.000;2023-02-15T17:38:59;10.95;;;3.75;;
35981;SDS011;22058;0.000;0.000;2023-02-15T17:41:26;4.50;;;3.40;;
35981;SDS011;22058;0.000;0.000;2023-02-15T17:43:52;7.90;;;3.22;;
35981;SDS011;22058;0.000;0.000;2023-02-15T17:46:18;9.10;;;3.25;;
35981;SDS011;22058;0.000;0.000;2023-02-15T17:48:48;6.07;;;3.10;;
35981;SDS011;22058;0.000;0.000;2023-02-15T17:51:15;6.63;;;3.30;;
35981;SDS011;22058;0.000;0.000;2023-02-15T17:53:42;11.60;;;3.35;;
35981;SDS011;22058;0.000;0.000;2023-02-15T17:56:27;15.10;;;3.75;;
35981;SDS011;22058;0.000;0.000;2023-02-15T17:58:53;10.05;;;4.15;;
35981;SDS011;22058;0.000;0.000;2023-02-15T18:01:19;6.53;;;3.25;;
35981;SDS011;22058;0.000;0.000;2023-02-15T18:04:07;6.03;;;3.08;;